Time;durP1;ratioP1;P1;durP2;ratioP2;P2;SDS_P1;SDS_P2;PMS_P1;PMS_P2;Temp;Humidity;BMP_temperature;BMP_pressure;BME280_temperature;BME280_humidity;BME280_pressure;Samples;Min_cycle;Max_cycle;Signal;HPM_P1;HPM_P2
2023/03/30 00:01:40;;;;;;;2.80;1.70;;;;;;;10.97;86.33;97921.91;4163329;28;20047;-73
2023/03/30 00:03:41;;;;;;;4.55;1.75;;;;;;;10.97;85.88;97925.47;4162845;28;20451;-73
2023/03/30 00:05:42;;;;;;;2.55;1.73;;;;;;;10.94;86.46;97911.63;4162128;28;20069;-73
2023/03/30 00:07:44;;;;;;;2.78;1.60;;;;;;;11.00;85.44;97912.00;4162383;28;20057;-73
2023/03/30 00:09:45;;;;;;;7.20;2.03;;;;;;;11.03;85.42;97905.69;4160479;28;20421;-73
2023/03/30 00:11:46;;;;;;;5.53;1.90;;;;;;;10.98;85.75;97904.91;4161372;28;20042;-73
2023/03/30 00:13:47;;;;;;;4.93;2.05;;;;;;;11.01;85.39;97891.47;4160689;28;20045;-73
2023/03/30 00:15:48;;;;;;;5.05;1.67;;;;;;;10.98;85.91;97888.28;4162557;28;20127;-73
2023/03/30 00:17:53;;;;;;;6.88;1.67;;;;;;;10.98;85.51;97888.28;4164468;28;20041;-72
2023/03/30 00:19:53;;;;;;;4.00;1.52;;;;;;;11.02;85.27;97893.06;4162068;28;20053;-73
2023/03/30 00:21:54;;;;;;;3.80;1.70;;;;;;;11.10;84.87;97891.88;4159529;28;20041;-72
2023/03/30 00:23:54;;;;;;;7.47;1.80;;;;;;;11.16;83.94;97893.03;4166513;28;20357;-73
2023/03/30 00:25:55;;;;;;;3.88;2.80;;;;;;;11.26;83.52;97892.25;4161434;28;20091;-72
2023/03/30 00:27:56;;;;;;;3.85;1.60;;;;;;;11.50;81.41;97896.16;4160649;28;20049;-72
2023/03/30 00:29:56;;;;;;;4.50;1.77;;;;;;;11.49;81.82;97887.06;4159913;28;20038;-73
2023/03/30 00:31:56;;;;;;;4.72;1.92;;;;;;;11.56;81.31;97891.81;4163490;28;20033;-73
2023/03/30 00:33:57;;;;;;;3.47;2.20;;;;;;;11.60;81.53;97887.06;4161124;28;20053;-73
2023/03/30 00:35:57;;;;;;;4.70;1.70;;;;;;;11.68;80.89;97876.75;4160800;28;20041;-73
2023/03/30 00:38:02;;;;;;;3.50;1.77;;;;;;;11.67;80.77;97873.19;4160439;28;20421;-73
2023/03/30 00:40:14;;;;;;;7.55;2.63;;;;;;;11.67;81.05;97873.19;4159418;28;20136;-73
2023/03/30 00:42:15;;;;;;;5.23;1.80;;;;;;;11.67;80.67;97867.66;4160499;28;20033;-73
2023/03/30 00:44:54;;;;;;;3.63;1.80;;;;;;;11.53;81.64;97873.22;4160171;28;20021;-73
2023/03/30 00:46:54;;;;;;;3.72;1.67;;;;;;;11.43;81.66;97858.22;4162985;28;20041;-73
2023/03/30 00:48:58;;;;;;;3.42;1.92;;;;;;;11.43;81.78;97852.66;4162122;28;20149;-73
2023/03/30 00:51:08;;;;;;;2.65;1.52;;;;;;;11.47;82.19;97847.09;4163016;28;20037;-73
2023/03/30 00:53:15;;;;;;;4.07;1.65;;;;;;;11.33;82.34;97847.13;4165201;28;20385;-73
2023/03/30 00:55:15;;;;;;;2.97;1.75;;;;;;;11.30;82.19;97842.41;4161200;28;20397;-73
2023/03/30 00:57:16;;;;;;;4.07;2.03;;;;;;;11.27;81.59;97848.75;4159693;28;20064;-73
2023/03/30 00:59:16;;;;;;;3.45;1.65;;;;;;;11.24;82.02;97839.22;4158966;28;20030;-73
2023/03/30 01:01:24;;;;;;;3.65;1.75;;;;;;;11.23;81.95;97837.66;4160689;28;20045;-73
2023/03/30 01:03:31;;;;;;;3.63;1.80;;;;;;;11.29;82.06;97826.97;4161200;28;20469;-73
2023/03/30 01:05:33;;;;;;;1.73;1.42;;;;;;;11.30;81.41;97826.56;4159250;28;20046;-72
2023/03/30 01:07:36;;;;;;;3.95;1.85;;;;;;;11.30;81.68;97818.25;4159993;28;20115;-73
2023/03/30 01:09:36;;;;;;;4.35;1.90;;;;;;;11.30;81.68;97815.50;4159646;28;20037;-73
2023/03/30 01:11:37;;;;;;;3.92;1.70;;;;;;;11.30;81.51;97814.69;4161527;28;20140;-73
2023/03/30 01:13:41;;;;;;;7.15;1.95;;;;;;;11.31;81.63;97802.44;4160304;28;20100;-73
2023/03/30 01:16:14;;;;;;;6.43;2.50;;;;;;;11.22;82.45;97794.53;4162468;28;20075;-73
2023/03/30 01:18:32;;;;;;;5.37;2.07;;;;;;;11.16;82.25;97805.22;4160699;28;20060;-73
2023/03/30 01:20:58;;;;;;;4.07;1.85;;;;;;;11.22;81.68;97800.88;4160248;28;20083;-73
2023/03/30 01:23:05;;;;;;;5.53;1.90;;;;;;;11.25;81.99;97794.56;4156369;28;20068;-73
2023/03/30 01:25:33;;;;;;;6.15;1.80;;;;;;;11.33;81.53;97798.06;4158841;28;20049;-72
2023/03/30 01:28:07;;;;;;;6.55;2.80;;;;;;;11.35;81.28;97792.16;4160053;28;20583;-73
2023/03/30 01:30:16;;;;;;;4.63;2.10;;;;;;;11.43;81.29;97793.72;4160809;28;20065;-73
2023/03/30 01:32:45;;;;;;;9.82;2.28;;;;;;;11.46;80.97;97790.91;4159696;28;20072;-73
2023/03/30 01:34:56;;;;;;;4.07;1.63;;;;;;;11.45;81.14;97788.56;4159572;28;20060;-73
2023/03/30 01:37:16;;;;;;;7.13;1.88;;;;;;;11.49;80.67;97784.56;4160261;28;20067;-73
2023/03/30 01:39:19;;;;;;;5.53;1.80;;;;;;;11.50;80.85;97788.94;4160339;28;20036;-73
2023/03/30 01:41:36;;;;;;;3.33;1.80;;;;;;;11.46;81.11;97784.59;4161354;28;20057;-73
2023/03/30 01:43:36;;;;;;;7.25;1.98;;;;;;;11.48;81.20;97782.19;4159150;28;20382;-73
2023/03/30 01:45:39;;;;;;;4.60;2.58;;;;;;;11.53;81.13;97795.66;4162984;28;20054;-73
2023/03/30 01:47:44;;;;;;;5.78;1.92;;;;;;;11.46;81.49;97796.47;4164091;28;20037;-73
2023/03/30 01:49:51;;;;;;;3.88;1.70;;;;;;;11.39;81.56;97799.25;4159357;28;20048;-73
2023/03/30 01:52:07;;;;;;;4.93;2.15;;;;;;;11.41;81.18;97801.59;4161983;28;20133;-73
2023/03/30 01:54:21;;;;;;;4.72;2.17;;;;;;;11.38;81.46;97794.09;4158686;28;20053;-73
2023/03/30 01:56:30;;;;;;;7.43;1.65;;;;;;;11.38;81.64;97808.75;4164575;28;20446;-73
2023/03/30 01:58:45;;;;;;;5.35;1.90;;;;;;;11.34;81.84;97802.44;4163075;28;20075;-73
2023/03/30 02:00:49;;;;;;;3.72;2.00;;;;;;;11.26;82.45;97798.09;4158795;28;20065;-73
2023/03/30 02:02:58;;;;;;;5.60;1.92;;;;;;;11.22;82.65;97805.63;4159643;28;20103;-73
2023/03/30 02:05:01;;;;;;;6.88;1.75;;;;;;;11.14;82.72;97812.34;4160167;28;20051;-73
2023/03/30 02:07:05;;;;;;;;;;;;;;;11.11;83.05;97810.38;4160083;28;20048;-73
2023/03/30 02:09:11;;;;;;;4.95;1.88;;;;;;;11.03;83.61;97826.22;4158350;28;20018;-73
2023/03/30 02:11:11;;;;;;;3.85;1.70;;;;;;;10.95;84.26;97819.09;4158545;28;20054;-73
2023/03/30 02:13:14;;;;;;;4.45;1.83;;;;;;;10.90;84.33;97820.28;4159315;28;20176;-73
2023/03/30 02:15:17;;;;;;;4.45;2.13;;;;;;;10.86;85.34;97818.72;4162654;28;20083;-73
2023/03/30 02:17:21;;;;;;;5.07;1.95;;;;;;;10.82;85.80;97828.97;4161536;28;20076;-73
2023/03/30 02:19:22;;;;;;;7.68;1.88;;;;;;;10.76;86.49;97825.84;4162852;28;20045;-73
2023/03/30 02:21:22;;;;;;;6.13;2.28;;;;;;;10.70;86.72;97827.41;4162750;28;20227;-73
2023/03/30 02:23:27;;;;;;;4.50;1.73;;;;;;;10.62;87.15;97825.81;4162696;28;20052;-73
2023/03/30 02:25:28;;;;;;;7.50;2.13;;;;;;;10.67;86.82;97833.72;4164345;28;20083;-73
2023/03/30 02:27:28;;;;;;;5.25;1.98;;;;;;;10.65;87.25;97820.28;4168813;28;20045;-73
2023/03/30 02:29:31;;;;;;;6.07;1.90;;;;;;;10.61;87.17;97821.47;4162309;28;20522;-72
2023/03/30 02:31:32;;;;;;;3.42;1.80;;;;;;;10.63;87.18;97816.34;4162309;28;20050;-73
2023/03/30 02:33:39;;;;;;;6.13;2.53;;;;;;;10.61;87.70;97827.00;4169773;28;20632;-73
2023/03/30 02:35:51;;;;;;;5.28;2.58;;;;;;;10.58;87.33;97823.03;4162348;28;20049;-73
2023/03/30 02:38:29;;;;;;;4.30;2.20;;;;;;;10.47;88.17;97821.44;4161379;28;20065;-73
2023/03/30 02:40:54;;;;;;;3.25;1.98;;;;;;;10.39;88.41;97824.19;4161110;28;20037;-73
2023/03/30 02:43:16;;;;;;;4.70;2.00;;;;;;;10.32;88.59;97815.09;4167260;28;20061;-73
2023/03/30 02:45:20;;;;;;;14.80;2.53;;;;;;;10.31;88.95;97819.06;4162111;28;20079;-73
2023/03/30 02:47:45;;;;;;;4.93;1.98;;;;;;;10.31;88.77;97828.13;4162092;28;20034;-73
2023/03/30 02:50:26;;;;;;;3.63;1.73;;;;;;;10.45;88.14;97832.91;4162837;28;20277;-73
2023/03/30 02:52:51;;;;;;;8.73;2.03;;;;;;;10.45;88.06;97821.84;4138871;28;20041;-73
2023/03/30 02:54:58;;;;;;;5.32;1.95;;;;;;;10.48;87.89;97823.81;4162409;28;20429;-73
2023/03/30 02:57:17;;;;;;;6.15;2.08;;;;;;;10.50;87.92;97826.97;4161919;28;20054;-73
2023/03/30 02:59:21;;;;;;;8.63;2.58;;;;;;;10.59;87.07;97818.28;4161298;28;20041;-73
2023/03/30 03:01:31;;;;;;;6.82;2.20;;;;;;;10.62;86.10;97814.75;4167725;28;20213;-73
2023/03/30 03:03:41;;;;;;;7.30;2.03;;;;;;;10.69;86.24;97815.53;4160473;28;20056;-72
2023/03/30 03:05:43;;;;;;;6.45;2.00;;;;;;;10.73;85.62;97817.50;4162783;28;20048;-72
2023/03/30 03:07:44;;;;;;;5.30;2.40;;;;;;;10.77;85.94;97810.81;4162148;28;20572;-73
2023/03/30 03:09:44;;;;;;;6.63;2.03;;;;;;;10.70;86.19;97813.56;4161436;28;20073;-73
2023/03/30 03:11:45;;;;;;;5.18;1.83;;;;;;;10.74;85.45;97819.09;4162838;28;20041;-73
2023/03/30 03:13:46;;;;;;;2.80;1.45;;;;;;;10.77;85.45;97810.03;4161940;28;20037;-73
2023/03/30 03:15:48;;;;;;;7.90;2.05;;;;;;;10.73;85.74;97820.28;4164909;28;20037;-73
2023/03/30 03:17:50;;;;;;;4.03;2.13;;;;;;;10.65;86.03;97811.19;4161328;28;20041;-72
2023/03/30 03:19:50;;;;;;;3.40;1.95;;;;;;;10.65;85.70;97809.22;4160880;28;20037;-72
2023/03/30 03:21:50;;;;;;;6.63;2.00;;;;;;;10.64;85.29;97804.06;4161832;28;20061;-72
2023/03/30 03:23:51;;;;;;;5.95;2.10;;;;;;;10.69;85.44;97806.47;4161075;28;20381;-72
2023/03/30 03:25:52;;;;;;;3.42;1.73;;;;;;;10.73;85.71;97800.91;4164890;28;20444;-73
2023/03/30 03:27:52;;;;;;;3.05;1.83;;;;;;;10.67;85.79;97798.56;4165375;28;20083;-73
2023/03/30 03:29:52;;;;;;;6.72;2.38;;;;;;;10.64;86.15;97798.53;4161968;28;20052;-73
2023/03/30 03:31:53;;;;;;;2.78;1.70;;;;;;;10.60;86.24;97795.00;4160762;28;20510;-73
2023/03/30 03:33:53;;;;;;;3.95;2.03;;;;;;;10.52;86.51;97788.66;4162225;28;20038;-73
2023/03/30 03:35:58;;;;;;;3.60;1.70;;;;;;;10.46;87.49;97781.16;4161822;28;20377;-73
2023/03/30 03:37:59;;;;;;;3.75;2.00;;;;;;;10.44;87.15;97778.78;4162888;28;20124;-73
2023/03/30 03:39:59;;;;;;;5.00;1.63;;;;;;;10.42;87.20;97786.66;4161790;28;20046;-73
2023/03/30 03:41:59;;;;;;;3.72;1.98;;;;;;;10.35;87.67;97783.91;4161293;28;20042;-73
2023/03/30 03:44:00;;;;;;;5.25;2.13;;;;;;;10.28;88.99;97792.19;4161128;28;20092;-73
2023/03/30 03:46:00;;;;;;;7.70;2.15;;;;;;;10.22;89.01;97802.03;4160870;28;20033;-73
2023/03/30 03:48:00;;;;;;;4.38;1.70;;;;;;;10.16;89.26;97809.09;4161407;28;20060;-71
2023/03/30 03:50:03;;;;;;;6.13;2.72;;;;;;;10.13;89.53;97821.75;4160144;28;20135;-73
2023/03/30 03:52:03;;;;;;;5.97;2.45;;;;;;;10.14;89.49;97824.13;4160331;28;20478;-73
2023/03/30 03:54:03;;;;;;;2.95;2.17;;;;;;;10.14;89.67;97815.03;4161106;28;20086;-73
2023/03/30 03:56:04;;;;;;;6.72;2.67;;;;;;;10.18;89.46;97832.44;4160956;28;20041;-73
2023/03/30 03:58:06;;;;;;;3.30;2.10;;;;;;;10.26;89.09;97830.47;4163959;28;20420;-73
2023/03/30 04:00:14;;;;;;;5.28;2.60;;;;;;;10.32;88.38;97832.47;4160444;28;20401;-72
2023/03/30 04:02:15;;;;;;;3.70;2.03;;;;;;;10.36;88.00;97838.03;4162452;28;20466;-72
2023/03/30 04:04:15;;;;;;;3.70;2.45;;;;;;;10.39;87.70;97840.78;4160231;28;20037;-73
2023/03/30 04:06:15;;;;;;;6.18;3.88;;;;;;;10.48;87.07;97840.41;4162036;28;20025;-73
2023/03/30 04:08:16;;;;;;;6.68;4.00;;;;;;;10.71;86.10;97842.03;4159783;28;20412;-73
2023/03/30 04:10:17;;;;;;;6.03;3.05;;;;;;;10.81;87.40;97855.06;4160293;28;20370;-73
2023/03/30 04:12:19;;;;;;;6.32;2.15;;;;;;;10.91;89.39;97835.69;4161553;28;20094;-74
2023/03/30 04:14:19;;;;;;;4.90;2.67;;;;;;;11.01;89.58;97844.41;4160517;28;20084;-74
2023/03/30 04:16:20;;;;;;;6.88;2.28;;;;;;;11.05;91.18;97837.66;4162330;28;20334;-73
2023/03/30 04:18:20;;;;;;;4.43;2.30;;;;;;;11.03;92.39;97837.28;4159827;28;20057;-74
2023/03/30 04:20:22;;;;;;;6.25;2.20;;;;;;;11.01;93.97;97828.59;4160598;28;20520;-74
2023/03/30 04:22:25;;;;;;;8.97;1.97;;;;;;;11.04;94.27;97827.78;4161147;28;20135;-74
2023/03/30 04:24:28;;;;;;;6.88;2.05;;;;;;;10.95;97.26;97816.34;4160586;28;20465;-73
2023/03/30 04:26:29;;;;;;;7.28;2.55;;;;;;;10.91;96.25;97816.31;4160125;28;20339;-73
2023/03/30 04:28:31;;;;;;;5.95;2.53;;;;;;;10.86;97.54;97819.50;4143519;28;20089;-73
2023/03/30 04:30:32;;;;;;;8.98;2.38;;;;;;;10.87;97.98;97812.00;4160759;28;20071;-73
2023/03/30 04:32:37;;;;;;;6.40;2.22;;;;;;;10.88;98.37;97808.03;4159327;28;20041;-74
2023/03/30 04:34:41;;;;;;;5.93;2.30;;;;;;;10.94;98.69;97814.75;4162713;28;20536;-74
2023/03/30 04:36:44;;;;;;;7.00;2.10;;;;;;;10.95;99.32;97819.09;4165212;28;20465;-74
2023/03/30 04:38:57;;;;;;;5.90;2.50;;;;;;;10.96;99.78;97802.09;4161983;28;20420;-74
2023/03/30 04:41:00;;;;;;;9.40;2.50;;;;;;;10.94;100.00;97807.25;4165736;28;20081;-74
2023/03/30 04:43:02;;;;;;;6.68;2.30;;;;;;;10.87;100.00;97800.91;4160190;28;20072;-74
2023/03/30 04:45:05;;;;;;;6.68;2.45;;;;;;;10.84;100.00;97794.22;4161333;28;20498;-74
2023/03/30 04:47:05;;;;;;;6.75;2.58;;;;;;;10.90;100.00;97794.56;4159547;28;20041;-74
2023/03/30 04:49:06;;;;;;;4.22;2.53;;;;;;;10.87;100.00;97807.25;4159930;28;20048;-74
2023/03/30 04:51:06;;;;;;;6.57;2.47;;;;;;;10.95;100.00;97802.50;4160018;28;20481;-74
2023/03/30 04:53:06;;;;;;;7.47;2.60;;;;;;;11.00;100.00;97799.31;4159499;28;20280;-74
2023/03/30 04:55:08;;;;;;;10.45;2.67;;;;;;;11.02;100.00;97776.78;4161579;28;20045;-74
2023/03/30 04:57:09;;;;;;;4.27;2.50;;;;;;;10.95;100.00;97759.00;4160190;28;20042;-74
2023/03/30 04:59:09;;;;;;;5.68;2.67;;;;;;;10.93;100.00;97764.16;4159652;28;20079;-74
2023/03/30 05:01:10;;;;;;;7.60;2.58;;;;;;;10.95;100.00;97758.22;4161272;28;20045;-74
2023/03/30 05:03:10;;;;;;;7.53;2.83;;;;;;;10.98;100.00;97758.19;4159487;28;20041;-74
2023/03/30 05:05:11;;;;;;;4.35;2.45;;;;;;;11.01;100.00;97745.56;4162024;28;20057;-74
2023/03/30 05:07:11;;;;;;;6.45;2.60;;;;;;;11.07;100.00;97732.06;4127013;28;20041;-74
2023/03/30 05:09:12;;;;;;;9.48;2.75;;;;;;;11.08;100.00;97731.69;4157717;28;20128;-74
2023/03/30 05:11:12;;;;;;;5.93;2.70;;;;;;;11.08;100.00;97728.13;4164187;28;20041;-74
2023/03/30 05:13:12;;;;;;;9.50;3.15;;;;;;;11.14;100.00;97721.78;4159260;28;20045;-74
2023/03/30 05:15:13;;;;;;;6.55;2.95;;;;;;;11.12;100.00;97704.00;4161210;28;20118;-74
2023/03/30 05:17:14;;;;;;;7.47;3.05;;;;;;;11.15;100.00;97700.41;4160201;28;20050;-74
2023/03/30 05:19:14;;;;;;;7.00;2.60;;;;;;;11.11;100.00;97671.97;4160434;28;20069;-74
2023/03/30 05:21:15;;;;;;;4.88;2.88;;;;;;;11.06;100.00;97659.31;4159232;28;20137;-74
2023/03/30 05:23:15;;;;;;;7.57;2.70;;;;;;;11.07;100.00;97677.50;4160101;28;20046;-74
2023/03/30 05:25:15;;;;;;;5.68;2.67;;;;;;;11.05;100.00;97670.78;4161633;28;20083;-74
2023/03/30 05:27:16;;;;;;;4.13;2.40;;;;;;;11.08;100.00;97679.06;4162752;28;20033;-74
2023/03/30 05:29:16;;;;;;;4.82;2.40;;;;;;;11.12;100.00;97654.94;4159688;28;20048;-74
2023/03/30 05:31:18;;;;;;;6.40;2.78;;;;;;;11.11;100.00;97644.28;4159811;28;20063;-74
2023/03/30 05:33:18;;;;;;;3.78;2.42;;;;;;;11.16;100.00;97644.63;4159620;28;20073;-74
2023/03/30 05:35:18;;;;;;;4.97;2.20;;;;;;;11.15;100.00;97664.44;4160903;28;20441;-74
2023/03/30 05:37:19;;;;;;;6.05;2.72;;;;;;;11.10;100.00;97649.03;4159345;28;20409;-74
2023/03/30 05:39:22;;;;;;;4.05;2.60;;;;;;;11.01;100.00;97643.16;4159060;28;20037;-74
2023/03/30 05:41:22;;;;;;;9.20;2.85;;;;;;;11.02;100.00;97644.72;4157093;28;20041;-74
2023/03/30 05:43:22;;;;;;;4.13;2.80;;;;;;;10.97;100.00;97642.34;4158238;28;20535;-74
2023/03/30 05:45:23;;;;;;;3.75;2.47;;;;;;;10.93;100.00;97655.44;4162201;28;20045;-73
2023/03/30 05:47:23;;;;;;;4.15;2.42;;;;;;;10.85;100.00;97648.34;4164875;28;20588;-74
2023/03/30 05:49:24;;;;;;;3.20;2.45;;;;;;;10.80;100.00;97659.81;4158567;28;20045;-74
2023/03/30 05:51:24;;;;;;;6.43;3.03;;;;;;;10.77;100.00;97655.88;4159040;28;20045;-74
2023/03/30 05:53:25;;;;;;;7.78;3.45;;;;;;;10.81;100.00;97658.59;4164989;28;20042;-74
2023/03/30 05:55:26;;;;;;;11.77;3.30;;;;;;;10.85;100.00;97653.88;4159146;28;20627;-74
2023/03/30 05:57:26;;;;;;;5.38;3.08;;;;;;;10.82;100.00;97643.56;4162746;28;20512;-73
2023/03/30 05:59:27;;;;;;;3.20;2.35;;;;;;;10.79;100.00;97642.41;4159381;28;20046;-73
2023/03/30 06:01:27;;;;;;;7.47;3.63;;;;;;;10.80;100.00;97648.72;4158053;28;20042;-73
2023/03/30 06:03:27;;;;;;;5.80;3.15;;;;;;;10.77;100.00;97649.53;4159185;28;20060;-73
2023/03/30 06:05:28;;;;;;;9.45;3.00;;;;;;;10.78;100.00;97651.91;4159670;28;20038;-73
2023/03/30 06:07:29;;;;;;;4.10;2.63;;;;;;;10.76;100.00;97648.75;4158883;28;20052;-73
2023/03/30 06:09:29;;;;;;;5.55;2.67;;;;;;;10.75;100.00;97646.34;4160134;28;20042;-73
2023/03/30 06:11:30;;;;;;;5.05;2.30;;;;;;;10.72;100.00;97652.69;4161270;28;20240;-73
2023/03/30 06:13:31;;;;;;;5.32;2.72;;;;;;;10.78;100.00;97656.66;4158946;28;20398;-73
2023/03/30 06:15:31;;;;;;;5.35;2.67;;;;;;;10.79;100.00;97653.47;4158807;28;20038;-73
2023/03/30 06:17:31;;;;;;;7.20;2.83;;;;;;;10.81;100.00;97659.41;4159677;28;20095;-73
2023/03/30 06:19:32;;;;;;;5.95;2.88;;;;;;;10.85;100.00;97646.34;4159475;28;20080;-73
2023/03/30 06:21:32;;;;;;;7.05;2.67;;;;;;;10.90;100.00;97647.91;4159511;28;20072;-73
2023/03/30 06:23:33;;;;;;;8.50;2.97;;;;;;;10.93;100.00;97653.44;4158303;28;20084;-73
2023/03/30 06:25:35;;;;;;;5.43;2.67;;;;;;;10.95;100.00;97662.13;4158758;28;20045;-73
2023/03/30 06:27:36;;;;;;;11.70;2.60;;;;;;;10.96;100.00;97657.38;4159633;28;20493;-73
2023/03/30 06:29:37;;;;;;;4.95;2.67;;;;;;;11.04;100.00;97656.16;4160263;28;20121;-73
2023/03/30 06:31:37;;;;;;;6.53;2.30;;;;;;;11.06;100.00;97648.25;4158898;28;20100;-73
2023/03/30 06:33:37;;;;;;;3.97;2.33;;;;;;;11.12;100.00;97648.63;4158159;28;20042;-73
2023/03/30 06:35:38;;;;;;;7.75;2.80;;;;;;;11.11;100.00;97642.31;4162788;28;20055;-73
2023/03/30 06:37:39;;;;;;;6.65;2.63;;;;;;;11.16;100.00;97633.56;4158493;28;20045;-73
2023/03/30 06:39:39;;;;;;;9.00;2.78;;;;;;;11.24;100.00;97634.31;4158691;28;20053;-72
2023/03/30 06:41:40;;;;;;;4.72;2.55;;;;;;;11.29;100.00;97633.91;4161301;28;20171;-72
2023/03/30 06:43:40;;;;;;;5.80;2.78;;;;;;;11.38;100.00;97641.78;4157635;28;20493;-73
2023/03/30 06:45:41;;;;;;;5.72;2.67;;;;;;;11.47;100.00;97642.13;4162735;28;20041;-73
2023/03/30 06:47:41;;;;;;;6.25;2.60;;;;;;;11.54;100.00;97650.41;4158291;28;20041;-73
2023/03/30 06:49:41;;;;;;;7.65;2.83;;;;;;;11.59;100.00;97651.97;4161702;28;20534;-73
2023/03/30 06:51:42;;;;;;;5.35;2.80;;;;;;;11.61;100.00;97646.81;4159445;28;20097;-73
2023/03/30 06:53:42;;;;;;;7.18;2.80;;;;;;;11.62;100.00;97653.94;4158016;28;20056;-73
2023/03/30 06:55:43;;;;;;;10.35;2.47;;;;;;;11.72;100.00;97653.06;4158912;28;20157;-73
2023/03/30 06:57:43;;;;;;;6.10;2.55;;;;;;;11.80;100.00;97658.19;4159096;28;20037;-73
2023/03/30 06:59:44;;;;;;;6.13;2.78;;;;;;;11.81;100.00;97662.53;4159114;28;20469;-73
2023/03/30 07:01:44;;;;;;;8.40;2.55;;;;;;;11.86;100.00;97661.31;4161291;28;20464;-73
2023/03/30 07:03:44;;;;;;;7.95;2.45;;;;;;;11.88;100.00;97666.47;4162035;28;20136;-73
2023/03/30 07:05:49;;;;;;;10.00;2.90;;;;;;;11.91;100.00;97674.72;4161592;28;20040;-73
2023/03/30 07:07:53;;;;;;;5.07;2.38;;;;;;;11.87;100.00;97662.91;4160830;28;20083;-73
2023/03/30 07:09:53;;;;;;;6.95;3.47;;;;;;;11.90;100.00;97667.63;4167708;28;20113;-73
2023/03/30 07:11:54;;;;;;;6.03;2.50;;;;;;;11.84;100.00;97674.81;4161814;28;20119;-73
2023/03/30 07:13:55;;;;;;;10.73;3.35;;;;;;;11.84;100.00;97672.03;4160868;28;20038;-73
2023/03/30 07:15:55;;;;;;;10.68;2.50;;;;;;;11.80;100.00;97691.44;4161526;28;20087;-73
2023/03/30 07:17:56;;;;;;;5.88;2.42;;;;;;;11.84;100.00;97701.72;4162095;28;20425;-73
2023/03/30 07:19:56;;;;;;;8.50;2.67;;;;;;;11.99;98.88;97694.88;4161522;28;20065;-73
2023/03/30 07:21:56;;;;;;;6.25;2.55;;;;;;;12.08;98.93;97684.94;4160519;28;20119;-73
2023/03/30 07:23:59;;;;;;;8.43;2.60;;;;;;;12.10;99.33;97709.47;4161944;28;20378;-73
2023/03/30 07:26:00;;;;;;;7.50;2.60;;;;;;;12.23;97.79;97691.16;4160935;28;20033;-73
2023/03/30 07:28:01;;;;;;;5.00;2.55;;;;;;;12.31;97.93;97694.66;4160565;28;20172;-73
2023/03/30 07:30:02;;;;;;;8.75;2.50;;;;;;;12.21;99.25;97696.31;4163992;28;20541;-73
2023/03/30 07:32:03;;;;;;;5.87;2.37;;;;;;;12.18;97.67;97701.91;4164224;28;20082;-73
2023/03/30 07:34:03;;;;;;;9.98;2.53;;;;;;;12.16;98.64;97701.50;4160223;28;20029;-73
2023/03/30 07:36:04;;;;;;;5.63;2.38;;;;;;;12.12;99.04;97704.31;4163855;28;20084;-73
2023/03/30 07:38:04;;;;;;;5.80;2.50;;;;;;;12.08;98.12;97714.63;4161748;28;20032;-73
2023/03/30 07:40:09;;;;;;;5.47;2.50;;;;;;;12.07;98.99;97699.19;4160861;28;20076;-73
2023/03/30 07:42:09;;;;;;;7.40;2.60;;;;;;;11.96;98.91;97707.59;4161036;28;20045;-73
2023/03/30 07:44:10;;;;;;;8.07;2.42;;;;;;;11.92;100.00;97717.13;4159933;28;20029;-73
2023/03/30 07:46:11;;;;;;;6.85;2.97;;;;;;;11.81;100.00;97717.97;4162256;28;20053;-73
2023/03/30 07:48:11;;;;;;;6.75;2.83;;;;;;;11.78;100.00;97724.28;4160322;28;20147;-73
2023/03/30 07:50:12;;;;;;;8.15;2.50;;;;;;;11.71;100.00;97732.63;4160843;28;20446;-73
2023/03/30 07:52:12;;;;;;;9.23;3.55;;;;;;;11.67;100.00;97731.09;4161989;28;20417;-73
2023/03/30 07:54:13;;;;;;;7.45;2.65;;;;;;;11.65;100.00;97720.38;4159921;28;20080;-73
2023/03/30 07:56:13;;;;;;;6.90;2.58;;;;;;;11.57;100.00;97713.31;4161104;28;20124;-73
2023/03/30 07:58:14;;;;;;;7.93;3.17;;;;;;;11.59;100.00;97715.69;4161500;28;20025;-73
2023/03/30 08:00:14;;;;;;;5.70;2.80;;;;;;;11.60;100.00;97740.22;4160974;28;20017;-73
2023/03/30 08:02:15;;;;;;;9.63;2.50;;;;;;;11.60;100.00;97729.13;4160360;28;20034;-73
2023/03/30 08:04:17;;;;;;;8.85;2.90;;;;;;;11.55;100.00;97729.53;4160171;28;20481;-73
2023/03/30 08:06:17;;;;;;;8.73;3.15;;;;;;;11.51;100.00;97735.13;4162057;28;20032;-73
2023/03/30 08:08:17;;;;;;;6.57;2.60;;;;;;;11.52;100.00;97735.91;4160119;28;20112;-73
2023/03/30 08:10:18;;;;;;;9.90;2.55;;;;;;;11.49;100.00;97731.94;4161619;28;20033;-73
2023/03/30 08:12:18;;;;;;;6.95;2.60;;;;;;;11.46;100.00;97718.91;4160254;28;20055;-73
2023/03/30 08:14:18;;;;;;;8.35;2.33;;;;;;;11.49;100.00;97717.28;4159858;28;20709;-72
2023/03/30 08:16:19;;;;;;;6.00;2.92;;;;;;;11.44;100.00;97714.97;4162677;28;20033;-73
2023/03/30 08:18:20;;;;;;;8.52;2.63;;;;;;;11.44;100.00;97692.81;4160940;28;20060;-73
2023/03/30 08:20:20;;;;;;;6.65;2.90;;;;;;;11.45;100.00;97686.06;4161312;28;20473;-73
2023/03/30 08:22:21;;;;;;;4.97;2.50;;;;;;;11.52;100.00;97666.66;4160793;28;20045;-73
2023/03/30 08:24:22;;;;;;;6.75;2.97;;;;;;;11.52;100.00;97666.66;4162390;28;20046;-73
2023/03/30 08:26:22;;;;;;;9.13;2.38;;;;;;;11.53;100.00;97657.13;4160473;28;20434;-73
2023/03/30 08:28:23;;;;;;;10.15;3.40;;;;;;;11.57;100.00;97657.91;4159551;28;20133;-73
2023/03/30 08:30:23;;;;;;;6.93;2.67;;;;;;;11.63;100.00;97650.75;4160827;28;21245;-73
2023/03/30 08:32:26;;;;;;;6.00;2.35;;;;;;;11.65;100.00;97645.56;4160208;28;20034;-73
2023/03/30 08:34:26;;;;;;;5.05;2.35;;;;;;;11.72;100.00;97658.59;4160963;28;20102;-72
2023/03/30 08:36:27;;;;;;;5.25;2.45;;;;;;;11.74;100.00;97689.47;4160039;28;20510;-73
2023/03/30 08:38:28;;;;;;;4.93;2.42;;;;;;;11.79;100.00;97698.16;4160470;28;20060;-73
2023/03/30 08:40:29;;;;;;;6.18;2.53;;;;;;;11.86;100.00;97713.19;4160259;28;20128;-73
2023/03/30 08:42:43;;;;;;;8.38;2.80;;;;;;;11.98;100.00;97712.72;4160249;28;20084;-73
2023/03/30 08:44:50;;;;;;;7.85;2.60;;;;;;;12.04;100.00;97697.22;4159957;28;20083;-73
2023/03/30 08:46:50;;;;;;;6.95;2.75;;;;;;;12.09;100.00;97691.28;4161724;28;20061;-73
2023/03/30 08:48:53;;;;;;;4.03;2.22;;;;;;;12.16;100.00;97698.72;4162766;28;20041;-73
2023/03/30 08:51:01;;;;;;;6.47;2.53;;;;;;;12.18;100.00;97705.47;4160247;28;20369;-72
2023/03/30 08:53:05;;;;;;;6.65;2.65;;;;;;;12.15;100.00;97694.38;4159286;28;20045;-73
2023/03/30 08:55:09;;;;;;;3.75;2.58;;;;;;;12.16;100.00;97688.41;4160224;28;20069;-73
2023/03/30 08:57:16;;;;;;;5.78;2.40;;;;;;;12.16;100.00;97673.78;4159023;28;20430;-73
2023/03/30 08:59:42;;;;;;;5.15;2.38;;;;;;;12.20;100.00;97691.19;4160167;28;20042;-73
2023/03/30 09:02:02;;;;;;;5.38;2.30;;;;;;;12.18;100.00;97688.81;4160722;28;20060;-73
2023/03/30 09:04:12;;;;;;;6.07;2.88;;;;;;;12.18;100.00;97688.81;4161705;28;20147;-73
2023/03/30 09:06:21;;;;;;;4.85;2.33;;;;;;;12.15;100.00;97711.81;4159633;28;20036;-73
2023/03/30 09:08:27;;;;;;;4.53;2.50;;;;;;;12.20;100.00;97705.84;4159945;28;20057;-73
2023/03/30 09:10:31;;;;;;;5.95;2.75;;;;;;;12.20;100.00;97705.06;4159111;28;20385;-73
2023/03/30 09:12:46;;;;;;;4.53;2.47;;;;;;;12.26;100.00;97706.19;4160181;28;20045;-73
2023/03/30 09:15:17;;;;;;;5.78;2.42;;;;;;;12.28;100.00;97699.03;4165677;28;20164;-73
2023/03/30 09:17:21;;;;;;;6.20;3.10;;;;;;;12.33;100.00;97701.38;4158813;28;20129;-73
2023/03/30 09:19:29;;;;;;;8.32;3.42;;;;;;;12.29;100.00;97706.16;4160534;28;20045;-73
2023/03/30 09:21:30;;;;;;;6.70;2.20;;;;;;;12.40;100.00;97705.28;4160088;28;20056;-73
2023/03/30 09:23:32;;;;;;;7.15;2.88;;;;;;;12.44;100.00;97708.84;4159937;28;20037;-73
2023/03/30 09:26:10;;;;;;;3.40;2.50;;;;;;;12.61;100.00;97722.56;4160816;28;20085;-72
2023/03/30 09:28:27;;;;;;;6.07;2.65;;;;;;;12.72;100.00;97705.78;4159039;28;20057;-73
2023/03/30 09:30:36;;;;;;;5.95;2.45;;;;;;;12.76;100.00;97703.00;4159159;28;20099;-73
2023/03/30 09:32:43;;;;;;;5.05;2.30;;;;;;;12.82;100.00;97718.00;4160060;28;20071;-72
2023/03/30 09:34:53;;;;;;;5.65;2.38;;;;;;;12.74;99.76;97708.16;4158933;28;20208;-72
2023/03/30 09:37:03;;;;;;;4.97;2.30;;;;;;;12.72;100.00;97713.34;4158338;28;20128;-72
2023/03/30 09:39:17;;;;;;;7.25;2.83;;;;;;;12.70;99.73;97721.28;4162126;28;20041;-73
2023/03/30 09:41:36;;;;;;;7.55;3.33;;;;;;;12.72;99.58;97727.22;4159409;28;20048;-73